createdAt,value
2023-04-08T00:00:22.814Z,22.64
2023-04-08T00:01:22.804Z,22.64
2023-04-08T00:02:22.935Z,22.64
2023-04-08T00:03:22.895Z,22.64
2023-04-08T00:04:22.816Z,22.64
2023-04-08T00:05:22.767Z,22.64
2023-04-08T00:06:22.768Z,22.63
2023-04-08T00:07:22.769Z,22.62
2023-04-08T00:08:22.750Z,22.64
2023-04-08T00:09:22.750Z,22.63
2023-04-08T00:10:22.740Z,22.64
2023-04-08T00:11:22.765Z,22.63
2023-04-08T00:12:22.741Z,22.64
2023-04-08T00:13:22.746Z,22.63
2023-04-08T00:14:22.728Z,22.62
2023-04-08T00:15:22.722Z,22.62
2023-04-08T00:16:22.790Z,22.62
2023-04-08T00:17:22.896Z,22.63
2023-04-08T00:18:22.723Z,22.63
2023-04-08T00:19:22.707Z,22.65
2023-04-08T00:20:22.723Z,22.65
2023-04-08T00:21:22.703Z,22.64
2023-04-08T00:22:22.686Z,22.64
2023-04-08T00:23:22.697Z,22.64
2023-04-08T00:24:22.687Z,22.64
2023-04-08T00:25:24.897Z,22.64
2023-04-08T00:26:22.697Z,22.64
2023-04-08T00:27:22.664Z,22.63
2023-04-08T00:28:22.699Z,22.64
2023-04-08T00:29:22.659Z,22.62
2023-04-08T00:30:22.676Z,22.62
2023-04-08T00:31:22.767Z,22.62
2023-04-08T00:32:22.666Z,22.61
2023-04-08T00:33:22.652Z,22.61
2023-04-08T00:34:22.676Z,22.61
2023-04-08T00:35:22.706Z,22.61
2023-04-08T00:36:22.690Z,22.60
2023-04-08T00:37:22.658Z,22.60
2023-04-08T00:38:22.673Z,22.60
2023-04-08T00:39:22.651Z,22.60
2023-04-08T00:40:22.647Z,22.60
2023-04-08T00:41:22.671Z,22.60
2023-04-08T00:42:22.648Z,22.60
2023-04-08T00:43:22.632Z,22.61
2023-04-08T00:44:22.643Z,22.61
2023-04-08T00:45:22.639Z,22.60
2023-04-08T00:46:22.731Z,22.60
2023-04-08T00:47:22.652Z,22.60
2023-04-08T00:48:22.651Z,22.60
2023-04-08T00:49:22.641Z,22.60
2023-04-08T00:50:22.660Z,22.61
2023-04-08T00:51:22.649Z,22.61
2023-04-08T00:52:22.718Z,22.60
2023-04-08T00:53:24.211Z,22.59
2023-04-08T00:54:22.817Z,22.59
2023-04-08T00:55:22.814Z,22.59
2023-04-08T00:56:22.840Z,22.60
2023-04-08T00:57:22.859Z,22.60
2023-04-08T00:58:22.864Z,22.60
2023-04-08T00:59:22.879Z,22.61
2023-04-08T01:00:22.903Z,22.59
2023-04-08T01:01:22.964Z,22.60
2023-04-08T01:02:23.141Z,22.59
2023-04-08T01:03:23.097Z,22.59
2023-04-08T01:04:23.108Z,22.59
2023-04-08T01:05:22.973Z,22.59
2023-04-08T01:06:22.974Z,22.59
2023-04-08T01:07:22.973Z,22.60
2023-04-08T01:08:22.985Z,22.60
2023-04-08T01:09:23.002Z,22.59
2023-04-08T01:10:23.003Z,22.60
2023-04-08T01:11:23.018Z,22.60
2023-04-08T01:12:23.040Z,22.61
2023-04-08T01:13:23.052Z,22.60
2023-04-08T01:14:23.054Z,22.61
2023-04-08T01:15:23.082Z,22.60
2023-04-08T01:16:23.253Z,22.60
2023-04-08T01:17:23.146Z,22.60
2023-04-08T01:18:23.127Z,22.59
2023-04-08T01:19:23.124Z,22.59
2023-04-08T01:20:23.138Z,22.59
2023-04-08T01:21:23.164Z,22.58
2023-04-08T01:22:23.173Z,22.59
2023-04-08T01:23:23.174Z,22.57
2023-04-08T01:24:23.203Z,22.58
2023-04-08T01:25:23.201Z,22.58
2023-04-08T01:26:23.214Z,22.57
2023-04-08T01:27:23.237Z,22.58
2023-04-08T01:28:23.245Z,22.59
2023-04-08T01:29:23.258Z,22.59
2023-04-08T01:30:23.276Z,22.59
2023-04-08T01:31:23.379Z,22.59
2023-04-08T01:32:23.309Z,22.59
2023-04-08T01:33:23.293Z,22.59
2023-04-08T01:34:23.315Z,22.59
2023-04-08T01:35:23.417Z,22.59
2023-04-08T01:36:23.336Z,22.59
2023-04-08T01:37:23.385Z,22.58
2023-04-08T01:38:23.360Z,22.58
2023-04-08T01:39:23.371Z,22.59
2023-04-08T01:40:23.387Z,22.58
2023-04-08T01:41:23.401Z,22.59
2023-04-08T01:42:23.409Z,22.58
2023-04-08T01:43:23.425Z,22.58
2023-04-08T01:44:23.437Z,22.58
2023-04-08T01:45:23.448Z,22.58
2023-04-08T01:46:23.513Z,22.59
2023-04-08T01:47:23.485Z,22.58
2023-04-08T01:48:23.491Z,22.58
2023-04-08T01:49:23.484Z,22.58
2023-04-08T01:50:23.499Z,22.58
2023-04-08T01:51:23.522Z,22.58
2023-04-08T01:52:23.527Z,22.57
2023-04-08T01:53:23.531Z,22.57
2023-04-08T01:54:23.545Z,22.56
2023-04-08T01:55:23.543Z,22.56
2023-04-08T01:56:23.564Z,22.55
2023-04-08T01:57:23.566Z,22.56
2023-04-08T01:58:23.570Z,22.55
2023-04-08T01:59:23.587Z,22.55
2023-04-08T02:00:23.580Z,22.56
2023-04-08T02:01:23.624Z,22.56
2023-04-08T02:02:23.647Z,22.56
2023-04-08T02:03:23.839Z,22.55
2023-04-08T02:04:23.737Z,22.56
2023-04-08T02:05:23.645Z,22.56
2023-04-08T02:06:23.648Z,22.55
2023-04-08T02:07:23.668Z,22.55
2023-04-08T02:08:23.684Z,22.55
2023-04-08T02:09:23.708Z,22.55
2023-04-08T02:10:23.726Z,22.55
2023-04-08T02:11:23.731Z,22.55
2023-04-08T02:12:23.756Z,22.55
2023-04-08T02:13:23.755Z,22.54
2023-04-08T02:14:23.755Z,22.54
2023-04-08T02:15:23.764Z,22.55
2023-04-08T02:16:23.842Z,22.55
2023-04-08T02:17:23.796Z,22.56
2023-04-08T02:18:23.807Z,22.55
2023-04-08T02:19:23.808Z,22.55
2023-04-08T02:20:23.829Z,22.55
2023-04-08T02:21:23.844Z,22.54
2023-04-08T02:22:23.850Z,22.53
2023-04-08T02:23:23.867Z,22.53
2023-04-08T02:24:23.890Z,22.53
2023-04-08T02:25:23.906Z,22.53
2023-04-08T02:26:23.925Z,22.53
2023-04-08T02:27:23.922Z,22.54
2023-04-08T02:28:23.922Z,22.54
2023-04-08T02:29:23.979Z,22.54
2023-04-08T02:30:23.956Z,22.55
2023-04-08T02:31:24.007Z,22.55
2023-04-08T02:32:23.983Z,22.55
2023-04-08T02:33:23.972Z,22.55
2023-04-08T02:34:23.965Z,22.56
2023-04-08T02:35:24.020Z,22.55
2023-04-08T02:36:23.991Z,22.56
2023-04-08T02:37:24.018Z,22.55
2023-04-08T02:38:24.231Z,22.55
2023-04-08T02:39:24.012Z,22.54
2023-04-08T02:40:24.020Z,22.54
2023-04-08T02:41:24.033Z,22.53
2023-04-08T02:42:24.053Z,22.53
2023-04-08T02:43:24.047Z,22.54
2023-04-08T02:44:24.037Z,22.54
2023-04-08T02:45:24.038Z,22.54
2023-04-08T02:46:24.036Z,22.54
2023-04-08T02:47:24.074Z,22.54
2023-04-08T02:48:24.023Z,22.54
2023-04-08T02:49:24.030Z,22.54
2023-04-08T02:50:24.036Z,22.54
2023-04-08T02:51:24.059Z,22.54
2023-04-08T02:52:24.043Z,22.54
2023-04-08T02:53:24.034Z,22.54
2023-04-08T02:54:24.032Z,22.54
2023-04-08T02:55:24.051Z,22.54
2023-04-08T02:56:24.048Z,22.54
2023-04-08T02:57:24.044Z,22.54
2023-04-08T02:58:24.036Z,22.54
2023-04-08T02:59:24.040Z,22.55
2023-04-08T03:00:24.041Z,22.56
2023-04-08T03:01:24.083Z,22.55
2023-04-08T03:02:24.161Z,22.55
2023-04-08T03:03:24.101Z,22.55
2023-04-08T03:04:24.034Z,22.54
2023-04-08T03:05:24.043Z,22.53
2023-04-08T03:06:24.036Z,22.53
2023-04-08T03:07:24.090Z,22.54
2023-04-08T03:08:24.043Z,22.53
2023-04-08T03:09:24.051Z,22.53
2023-04-08T03:10:24.035Z,22.54
2023-04-08T03:11:24.044Z,22.54
2023-04-08T03:12:24.046Z,22.53
2023-04-08T03:13:24.051Z,22.52
2023-04-08T03:14:24.063Z,22.53
2023-04-08T03:15:24.073Z,22.53
2023-04-08T03:16:24.084Z,22.53
2023-04-08T03:17:24.102Z,22.54
2023-04-08T03:18:24.059Z,22.54
2023-04-08T03:19:24.056Z,22.53
2023-04-08T03:20:24.055Z,22.53
2023-04-08T03:21:24.062Z,22.53
2023-04-08T03:22:24.048Z,22.53
2023-04-08T03:23:24.058Z,22.52
2023-04-08T03:24:24.040Z,22.52
2023-04-08T03:25:24.061Z,22.53
2023-04-08T03:26:24.046Z,22.52
2023-04-08T03:27:24.051Z,22.52
2023-04-08T03:28:24.069Z,22.53
2023-04-08T03:29:24.080Z,22.51
2023-04-08T03:30:24.075Z,22.51
2023-04-08T03:31:24.104Z,22.51
2023-04-08T03:32:24.113Z,22.51
2023-04-08T03:33:24.149Z,22.50
2023-04-08T03:34:24.116Z,22.50
2023-04-08T03:35:24.270Z,22.49
2023-04-08T03:36:24.159Z,22.50
2023-04-08T03:37:24.128Z,22.50
2023-04-08T03:38:24.134Z,22.50
2023-04-08T03:39:24.147Z,22.51
2023-04-08T03:40:24.155Z,22.51
2023-04-08T03:41:24.162Z,22.51
2023-04-08T03:42:24.139Z,22.51
2023-04-08T03:43:24.150Z,22.51
2023-04-08T03:44:24.147Z,22.51
2023-04-08T03:45:24.156Z,22.51
2023-04-08T03:46:24.202Z,22.51
2023-04-08T03:47:24.193Z,22.51
2023-04-08T03:48:24.174Z,22.49
2023-04-08T03:49:24.177Z,22.49
2023-04-08T03:50:24.232Z,22.48
2023-04-08T03:51:24.177Z,22.47
2023-04-08T03:52:24.177Z,22.45
2023-04-08T03:53:24.162Z,22.45
2023-04-08T03:54:24.156Z,22.45
2023-04-08T03:55:24.186Z,22.44
2023-04-08T03:56:24.174Z,22.44
2023-04-08T03:57:24.160Z,22.41
2023-04-08T03:58:24.182Z,22.42
2023-04-08T03:59:24.171Z,22.42
2023-04-08T04:00:24.196Z,22.41
2023-04-08T04:01:24.210Z,22.40
2023-04-08T04:02:24.409Z,22.40
2023-04-08T04:03:24.344Z,22.40
2023-04-08T04:04:24.317Z,22.39
2023-04-08T04:05:24.237Z,22.39
2023-04-08T04:06:24.255Z,22.38
2023-04-08T04:07:24.244Z,22.38
2023-04-08T04:08:24.274Z,22.37
2023-04-08T04:09:24.251Z,22.37
2023-04-08T04:10:24.258Z,22.37
2023-04-08T04:11:24.274Z,22.37
2023-04-08T04:12:24.269Z,22.36
2023-04-08T04:13:24.273Z,22.35
2023-04-08T04:14:24.293Z,22.35
2023-04-08T04:15:24.295Z,22.35
2023-04-08T04:16:24.302Z,22.35
2023-04-08T04:17:24.341Z,22.35
2023-04-08T04:18:24.358Z,22.35
2023-04-08T04:19:24.300Z,22.34
2023-04-08T04:20:24.310Z,22.34
2023-04-08T04:21:24.324Z,22.34
2023-04-08T04:22:24.360Z,22.34
2023-04-08T04:23:24.391Z,22.34
2023-04-08T04:24:24.396Z,22.33
2023-04-08T04:25:24.430Z,22.33
2023-04-08T04:26:24.465Z,22.33
2023-04-08T04:27:24.482Z,22.33
2023-04-08T04:28:24.526Z,22.33
2023-04-08T04:29:24.552Z,22.33
2023-04-08T04:30:24.585Z,22.33
2023-04-08T04:31:24.655Z,22.33
2023-04-08T04:32:24.674Z,22.33
2023-04-08T04:33:24.699Z,22.33
2023-04-08T04:34:24.713Z,22.32
2023-04-08T04:35:24.800Z,22.32
2023-04-08T04:36:24.784Z,22.32
2023-04-08T04:37:24.818Z,22.32
2023-04-08T04:38:24.854Z,22.31
2023-04-08T04:39:24.881Z,22.30
2023-04-08T04:40:24.921Z,22.30
2023-04-08T04:41:24.960Z,22.30
2023-04-08T04:42:24.999Z,22.31
2023-04-08T04:43:25.051Z,22.31
2023-04-08T04:44:25.073Z,22.31
2023-04-08T04:45:25.115Z,22.30
2023-04-08T04:46:25.221Z,22.31
2023-04-08T04:47:25.250Z,22.32
2023-04-08T04:48:25.224Z,22.32
2023-04-08T04:49:25.246Z,22.31
2023-04-08T04:50:25.279Z,22.30
2023-04-08T04:51:25.321Z,22.30
2023-04-08T04:52:25.348Z,22.31
2023-04-08T04:53:25.392Z,22.31
2023-04-08T04:54:25.422Z,22.30
2023-04-08T04:55:25.464Z,22.30
2023-04-08T04:56:25.493Z,22.30
2023-04-08T04:57:25.528Z,22.30
2023-04-08T04:58:25.587Z,22.30
2023-04-08T04:59:25.593Z,22.30
2023-04-08T05:00:25.623Z,22.29
2023-04-08T05:01:25.747Z,22.29
2023-04-08T05:02:25.881Z,22.29
2023-04-08T05:03:25.928Z,22.30
2023-04-08T05:04:25.770Z,22.31
2023-04-08T05:05:25.850Z,22.29
2023-04-08T05:06:25.826Z,22.29
2023-04-08T05:07:25.867Z,22.29
2023-04-08T05:08:27.833Z,22.29
2023-04-08T05:09:25.955Z,22.29
2023-04-08T05:10:25.973Z,22.29
2023-04-08T05:11:26.015Z,22.29
2023-04-08T05:12:26.048Z,22.29
2023-04-08T05:13:26.096Z,22.29
2023-04-08T05:14:26.134Z,22.29
2023-04-08T05:15:26.168Z,22.29
2023-04-08T05:16:26.238Z,22.29
2023-04-08T05:17:26.268Z,22.29
2023-04-08T05:18:26.341Z,22.28
2023-04-08T05:19:26.323Z,22.28
2023-04-08T05:20:26.358Z,22.28
2023-04-08T05:21:26.402Z,22.28
2023-04-08T05:22:26.444Z,22.28
2023-04-08T05:23:26.512Z,22.28
2023-04-08T05:24:26.532Z,22.28
2023-04-08T05:25:26.657Z,22.28
2023-04-08T05:26:26.607Z,22.28
2023-04-08T05:27:26.652Z,22.29
2023-04-08T05:28:26.690Z,22.28
2023-04-08T05:29:26.724Z,22.28
2023-04-08T05:30:26.768Z,22.28
2023-04-08T05:31:26.816Z,22.28
2023-04-08T05:32:26.842Z,22.28
2023-04-08T05:33:26.871Z,22.28
2023-04-08T05:34:26.907Z,22.28
2023-04-08T05:35:27.023Z,22.28
2023-04-08T05:36:26.988Z,22.28
2023-04-08T05:37:27.038Z,22.28
2023-04-08T05:38:27.057Z,22.27
2023-04-08T05:39:27.112Z,22.27
2023-04-08T05:40:27.139Z,22.27
2023-04-08T05:41:27.177Z,22.27
2023-04-08T05:42:27.208Z,22.26
2023-04-08T05:43:27.259Z,22.27
2023-04-08T05:44:27.297Z,22.28
2023-04-08T05:45:27.330Z,22.28
2023-04-08T05:46:27.404Z,22.27
2023-04-08T05:47:27.451Z,22.28
2023-04-08T05:48:27.428Z,22.27
2023-04-08T05:49:27.518Z,22.27
2023-04-08T05:50:27.519Z,22.27
2023-04-08T05:51:27.553Z,22.27
2023-04-08T05:52:27.632Z,22.28
2023-04-08T05:53:27.624Z,22.28
2023-04-08T05:54:27.647Z,22.27
2023-04-08T05:55:27.691Z,22.27
2023-04-08T05:56:27.723Z,22.27
2023-04-08T05:57:27.752Z,22.28
2023-04-08T05:58:27.824Z,22.28
2023-04-08T05:59:27.836Z,22.27
2023-04-08T06:00:27.871Z,22.26
2023-04-08T06:01:27.896Z,22.27
2023-04-08T06:02:28.097Z,22.27
2023-04-08T06:03:28.118Z,22.27
2023-04-08T06:04:28.081Z,22.27
2023-04-08T06:05:28.047Z,22.26
2023-04-08T06:06:28.084Z,22.26
2023-04-08T06:07:28.145Z,22.27
2023-04-08T06:08:28.159Z,22.27
2023-04-08T06:09:28.154Z,22.27
2023-04-08T06:10:28.140Z,22.27
2023-04-08T06:11:28.219Z,22.27
2023-04-08T06:12:28.176Z,22.27
2023-04-08T06:13:28.169Z,22.28
2023-04-08T06:14:28.185Z,22.28
2023-04-08T06:15:28.176Z,22.27
2023-04-08T06:16:28.209Z,22.27
2023-04-08T06:17:28.226Z,22.27
2023-04-08T06:18:28.195Z,22.27
2023-04-08T06:19:28.208Z,22.28
2023-04-08T06:20:28.193Z,22.27
2023-04-08T06:21:28.214Z,22.27
2023-04-08T06:22:28.222Z,22.27
2023-04-08T06:23:28.228Z,22.28
2023-04-08T06:24:28.242Z,22.28
2023-04-08T06:25:28.258Z,22.27
2023-04-08T06:26:28.297Z,22.27
2023-04-08T06:27:28.326Z,22.28
2023-04-08T06:28:28.377Z,22.28
2023-04-08T06:29:28.417Z,22.28
2023-04-08T06:30:28.486Z,22.28
2023-04-08T06:31:28.575Z,22.28
2023-04-08T06:32:28.551Z,22.28
2023-04-08T06:33:28.549Z,22.28
2023-04-08T06:34:28.607Z,22.28
2023-04-08T06:35:28.672Z,22.28
2023-04-08T06:36:28.662Z,22.28
2023-04-08T06:37:28.701Z,22.27
2023-04-08T06:38:28.754Z,22.27
2023-04-08T06:39:28.778Z,22.28
2023-04-08T06:40:28.817Z,22.28
2023-04-08T06:41:28.870Z,22.29
2023-04-08T06:42:28.926Z,22.29
2023-04-08T06:43:28.934Z,22.28
2023-04-08T06:44:29.013Z,22.28
2023-04-08T06:45:29.017Z,22.29
2023-04-08T06:46:29.058Z,22.29
2023-04-08T06:47:29.108Z,22.28
2023-04-08T06:48:29.134Z,22.29
2023-04-08T06:49:29.179Z,22.29
2023-04-08T06:50:29.213Z,22.30
2023-04-08T06:51:29.243Z,22.30
2023-04-08T06:52:29.284Z,22.29
2023-04-08T06:53:29.343Z,22.29
2023-04-08T06:54:29.353Z,22.29
2023-04-08T06:55:29.365Z,22.30
2023-04-08T06:56:29.354Z,22.29
2023-04-08T06:57:29.353Z,22.30
2023-04-08T06:58:29.362Z,22.30
2023-04-08T06:59:29.497Z,22.30
2023-04-08T07:00:29.345Z,22.30
2023-04-08T07:01:29.401Z,22.31
2023-04-08T07:02:29.427Z,22.31
2023-04-08T07:03:29.496Z,22.31
2023-04-08T07:04:29.337Z,22.31
2023-04-08T07:05:29.336Z,22.31
2023-04-08T07:06:29.336Z,22.31
2023-04-08T07:07:29.337Z,22.31
2023-04-08T07:08:29.341Z,22.31
2023-04-08T07:09:29.357Z,22.30
2023-04-08T07:10:29.444Z,22.32
2023-04-08T07:11:29.462Z,22.31
2023-04-08T07:12:29.469Z,22.31
2023-04-08T07:13:29.524Z,22.31
2023-04-08T07:14:29.539Z,22.31
2023-04-08T07:15:29.573Z,22.32
2023-04-08T07:16:29.648Z,22.31
2023-04-08T07:17:29.698Z,22.32
2023-04-08T07:18:29.675Z,22.32
2023-04-08T07:19:29.697Z,22.32
2023-04-08T07:20:32.018Z,22.32
2023-04-08T07:21:29.810Z,22.32
2023-04-08T07:22:29.843Z,22.32
2023-04-08T07:23:29.859Z,22.33
2023-04-08T07:24:29.894Z,22.33
2023-04-08T07:25:29.934Z,22.33
2023-04-08T07:26:29.964Z,22.33
2023-04-08T07:27:29.987Z,22.33
2023-04-08T07:28:30.036Z,22.34
2023-04-08T07:29:30.041Z,22.34
2023-04-08T07:30:30.077Z,22.34
2023-04-08T07:31:30.212Z,22.34
2023-04-08T07:32:30.147Z,22.34
2023-04-08T07:33:30.170Z,22.34
2023-04-08T07:34:30.193Z,22.34
2023-04-08T07:35:30.250Z,22.34
2023-04-08T07:36:30.244Z,22.34
2023-04-08T07:37:30.276Z,22.34
2023-04-08T07:38:30.313Z,22.35
2023-04-08T07:39:30.340Z,22.35
2023-04-08T07:40:30.387Z,22.35
2023-04-08T07:41:30.397Z,22.35
2023-04-08T07:42:30.420Z,22.35
2023-04-08T07:43:30.447Z,22.36
2023-04-08T07:44:30.543Z,22.36
2023-04-08T07:45:30.518Z,22.36
2023-04-08T07:46:30.559Z,22.35
2023-04-08T07:47:30.522Z,22.36
2023-04-08T07:48:30.515Z,22.38
2023-04-08T07:49:30.514Z,22.37
2023-04-08T07:50:30.522Z,22.37
2023-04-08T07:51:30.509Z,22.38
2023-04-08T07:52:30.516Z,22.38
2023-04-08T07:53:30.508Z,22.38
2023-04-08T07:54:30.520Z,22.39
2023-04-08T07:55:30.507Z,22.39
2023-04-08T07:56:30.511Z,22.40
2023-04-08T07:57:30.496Z,22.40
2023-04-08T07:58:30.505Z,22.40
2023-04-08T07:59:30.495Z,22.41
2023-04-08T08:00:30.503Z,22.41
2023-04-08T08:01:30.524Z,22.40
2023-04-08T08:02:30.528Z,22.40
2023-04-08T08:03:33.308Z,22.41
2023-04-08T08:04:30.599Z,22.41
2023-04-08T08:05:30.548Z,22.41
2023-04-08T08:06:30.493Z,22.41
2023-04-08T08:07:30.503Z,22.41
2023-04-08T08:08:30.484Z,22.42
2023-04-08T08:09:32.100Z,22.41
2023-04-08T08:10:30.511Z,22.42
2023-04-08T08:11:30.599Z,22.42
2023-04-08T08:12:30.498Z,22.44
2023-04-08T08:13:30.506Z,22.45
2023-04-08T08:14:30.502Z,22.45
2023-04-08T08:15:30.522Z,22.46
2023-04-08T08:16:30.598Z,22.46
2023-04-08T08:17:30.526Z,22.45
2023-04-08T08:18:30.497Z,22.46
2023-04-08T08:19:30.492Z,22.47
2023-04-08T08:20:30.500Z,22.47
2023-04-08T08:21:30.512Z,22.48
2023-04-08T08:22:30.497Z,22.49
2023-04-08T08:23:30.504Z,22.48
2023-04-08T08:24:30.502Z,22.49
2023-04-08T08:25:30.523Z,22.49
2023-04-08T08:26:30.499Z,22.51
2023-04-08T08:27:30.489Z,22.51
2023-04-08T08:28:30.538Z,22.51
2023-04-08T08:29:30.498Z,22.52
2023-04-08T08:30:31.034Z,22.52
2023-04-08T08:31:30.587Z,22.51
2023-04-08T08:32:30.516Z,22.53
2023-04-08T08:34:49.362Z,22.51
2023-04-08T08:35:49.416Z,22.53
2023-04-08T08:36:49.352Z,22.54
2023-04-08T08:37:49.359Z,22.55
2023-04-08T08:38:49.390Z,22.55
2023-04-08T08:39:49.351Z,22.56
2023-04-08T08:40:49.358Z,22.56
2023-04-08T08:41:49.351Z,22.57
2023-04-08T08:42:49.422Z,22.57
2023-04-08T08:43:49.584Z,22.57
2023-04-08T08:44:49.341Z,22.58
2023-04-08T08:45:49.356Z,22.59
2023-04-08T08:46:49.375Z,22.58
2023-04-08T08:47:50.983Z,22.60
2023-04-08T08:48:49.364Z,22.59
2023-04-08T08:49:49.379Z,22.60
2023-04-08T08:50:49.399Z,22.60
2023-04-08T08:51:49.378Z,22.60
2023-04-08T08:52:49.380Z,22.61
2023-04-08T08:53:49.412Z,22.61
2023-04-08T08:54:49.394Z,22.61
2023-04-08T08:56:49.429Z,22.62
2023-04-08T08:57:49.446Z,22.62
2023-04-08T08:58:49.412Z,22.62
2023-04-08T08:59:49.431Z,22.63
2023-04-08T09:00:49.430Z,22.64
2023-04-08T09:01:49.453Z,22.64
2023-04-08T09:02:49.515Z,22.64
2023-04-08T09:03:49.727Z,22.65
2023-04-08T09:04:49.552Z,22.66
2023-04-08T09:05:49.467Z,22.66
2023-04-08T09:06:49.422Z,22.66
2023-04-08T09:07:49.421Z,22.66
2023-04-08T09:08:49.417Z,22.66
2023-04-08T09:09:49.444Z,22.66
2023-04-08T09:10:49.421Z,22.66
2023-04-08T09:11:49.412Z,22.67
2023-04-08T09:12:49.413Z,22.67
2023-04-08T09:13:49.571Z,22.67
2023-04-08T09:14:49.376Z,22.67
2023-04-08T09:15:49.483Z,22.67
2023-04-08T09:16:49.476Z,22.67
2023-04-08T09:17:49.393Z,22.68
2023-04-08T09:18:49.536Z,22.67
2023-04-08T09:19:49.355Z,22.68
2023-04-08T09:20:49.344Z,22.68
2023-04-08T09:21:49.338Z,22.68
2023-04-08T09:22:49.352Z,22.68
2023-04-08T09:23:49.636Z,22.70
2023-04-08T09:24:49.313Z,22.70
2023-04-08T09:25:49.309Z,22.69
2023-04-08T09:26:49.305Z,22.69
2023-04-08T09:27:49.308Z,22.70
2023-04-08T09:28:49.315Z,22.71
2023-04-08T09:29:49.345Z,22.72
2023-04-08T09:30:49.356Z,22.73
2023-04-08T09:31:49.430Z,22.74
2023-04-08T09:32:49.374Z,22.74
2023-04-08T09:33:49.473Z,22.75
2023-04-08T09:34:49.320Z,22.76
2023-04-08T09:35:49.367Z,22.76
2023-04-08T09:36:49.314Z,22.77
2023-04-08T09:37:49.351Z,22.78
2023-04-08T09:38:49.312Z,22.78
2023-04-08T09:39:49.317Z,22.76
2023-04-08T09:40:49.325Z,22.76
2023-04-08T09:41:49.297Z,22.77
2023-04-08T09:42:49.293Z,22.77
2023-04-08T09:43:49.599Z,22.77
2023-04-08T09:44:49.300Z,22.77
2023-04-08T09:45:49.364Z,22.78
2023-04-08T09:46:49.297Z,22.79
2023-04-08T09:47:49.397Z,22.79
2023-04-08T09:48:49.272Z,22.79
2023-04-08T09:49:49.273Z,22.78
2023-04-08T09:50:49.275Z,22.77
2023-04-08T09:51:49.278Z,22.78
2023-04-08T09:52:49.276Z,22.77
2023-04-08T09:53:49.496Z,22.78
2023-04-08T09:54:49.286Z,22.79
2023-04-08T09:55:49.282Z,22.80
2023-04-08T09:56:49.303Z,22.81
2023-04-08T09:57:49.294Z,22.81
2023-04-08T09:58:49.314Z,22.81
2023-04-08T09:59:49.356Z,22.80
2023-04-08T10:00:49.430Z,22.81
2023-04-08T10:01:49.533Z,22.81
2023-04-08T10:02:49.613Z,22.81
2023-04-08T10:03:50.008Z,22.81
2023-04-08T10:04:49.547Z,22.82
2023-04-08T10:05:49.557Z,22.82
2023-04-08T10:06:49.596Z,22.83
2023-04-08T10:07:49.591Z,22.82
2023-04-08T10:08:49.580Z,22.82
2023-04-08T10:09:49.603Z,22.83
2023-04-08T10:10:49.577Z,22.83
2023-04-08T10:11:49.584Z,22.82
2023-04-08T10:12:49.589Z,22.82
2023-04-08T10:13:49.768Z,22.82
2023-04-08T10:14:49.576Z,22.82
2023-04-08T10:15:49.588Z,22.82
2023-04-08T10:16:49.594Z,22.82
2023-04-08T10:17:49.597Z,22.81
2023-04-08T10:18:49.582Z,22.82
2023-04-08T10:19:49.559Z,22.83
2023-04-08T10:20:49.546Z,22.84
2023-04-08T10:21:49.544Z,22.83
2023-04-08T10:22:49.539Z,22.84
2023-04-08T10:23:49.691Z,22.85
2023-04-08T10:24:49.525Z,22.84
2023-04-08T10:25:49.519Z,22.84
2023-04-08T10:26:49.507Z,22.83
2023-04-08T10:27:49.492Z,22.84
2023-04-08T10:28:49.491Z,22.84
2023-04-08T10:29:49.484Z,22.84
2023-04-08T10:30:49.468Z,22.85
2023-04-08T10:31:49.537Z,22.86
2023-04-08T10:32:49.494Z,22.85
2023-04-08T10:33:49.669Z,22.85
2023-04-08T10:34:49.464Z,22.86
2023-04-08T10:35:49.509Z,22.86
2023-04-08T10:36:49.543Z,22.86
2023-04-08T10:37:49.575Z,22.87
2023-04-08T10:38:49.643Z,22.86
2023-04-08T10:39:49.710Z,22.87
2023-04-08T10:40:49.846Z,22.86
2023-04-08T10:41:49.800Z,22.86
2023-04-08T10:42:49.820Z,22.86
2023-04-08T10:43:50.091Z,22.86
2023-04-08T10:44:49.854Z,22.86
2023-04-08T10:45:49.896Z,22.86
2023-04-08T10:46:49.940Z,22.86
2023-04-08T10:47:49.986Z,22.86
2023-04-08T10:48:49.897Z,22.87
2023-04-08T10:49:49.904Z,22.86
2023-04-08T10:50:49.909Z,22.85
2023-04-08T10:51:49.937Z,22.86
2023-04-08T10:52:49.901Z,22.86
2023-04-08T10:53:50.177Z,22.86
2023-04-08T10:54:49.903Z,22.86
2023-04-08T10:55:49.903Z,22.87
2023-04-08T10:56:49.910Z,22.86
2023-04-08T10:57:49.897Z,22.86
2023-04-08T10:58:49.939Z,22.86
2023-04-08T10:59:49.906Z,22.86
2023-04-08T11:00:49.902Z,22.86
2023-04-08T11:01:49.976Z,22.87
2023-04-08T11:02:49.991Z,22.86
2023-04-08T11:03:50.290Z,22.86
2023-04-08T11:04:49.997Z,22.86
2023-04-08T11:05:50.076Z,22.86
2023-04-08T11:06:50.158Z,22.87
2023-04-08T11:07:50.190Z,22.86
2023-04-08T11:08:50.227Z,22.85
2023-04-08T11:09:50.281Z,22.86
2023-04-08T11:10:50.296Z,22.86
2023-04-08T11:11:50.333Z,22.86
2023-04-08T11:12:50.347Z,22.86
2023-04-08T11:13:53.718Z,22.86
2023-04-08T11:14:50.378Z,22.86
2023-04-08T11:15:50.381Z,22.86
2023-04-08T11:16:50.388Z,22.86
2023-04-08T11:17:50.451Z,22.86
2023-04-08T11:18:50.377Z,22.85
2023-04-08T11:19:50.376Z,22.86
2023-04-08T11:20:50.353Z,22.86
2023-04-08T11:21:50.360Z,22.86
2023-04-08T11:22:50.364Z,22.85
2023-04-08T11:23:50.795Z,22.85
2023-04-08T11:24:50.348Z,22.86
2023-04-08T11:25:50.398Z,22.86
2023-04-08T11:26:50.361Z,22.86
2023-04-08T11:27:50.386Z,22.86
2023-04-08T11:28:50.355Z,22.84
2023-04-08T11:29:50.359Z,22.85
2023-04-08T11:30:50.385Z,22.85
2023-04-08T11:31:50.347Z,22.85
2023-04-08T11:32:50.461Z,22.84
2023-04-08T11:33:50.473Z,22.85
2023-04-08T11:34:50.336Z,22.84
2023-04-08T11:35:50.333Z,22.84
2023-04-08T11:36:50.322Z,22.83
2023-04-08T11:37:50.329Z,22.83
2023-04-08T11:38:50.326Z,22.83
2023-04-08T11:39:50.317Z,22.83
2023-04-08T11:40:50.305Z,22.83
2023-04-08T11:41:50.314Z,22.82
2023-04-08T11:42:50.308Z,22.83
2023-04-08T11:43:50.462Z,22.82
2023-04-08T11:44:50.303Z,22.82
2023-04-08T11:45:50.351Z,22.82
2023-04-08T11:46:50.384Z,22.82
2023-04-08T11:47:50.368Z,22.82
2023-04-08T11:48:50.316Z,22.82
2023-04-08T11:49:50.312Z,22.82
2023-04-08T11:50:50.322Z,22.82
2023-04-08T11:51:50.348Z,22.82
2023-04-08T11:52:50.323Z,22.81
2023-04-08T11:53:50.424Z,22.81
2023-04-08T11:54:50.317Z,22.82
2023-04-08T11:55:50.326Z,22.82
2023-04-08T11:56:50.319Z,22.82
2023-04-08T11:57:50.323Z,22.82
2023-04-08T11:58:50.318Z,22.83
2023-04-08T11:59:50.329Z,22.82
2023-04-08T12:00:50.318Z,22.83
2023-04-08T12:01:50.395Z,22.83
2023-04-08T12:02:50.401Z,22.83
2023-04-08T12:03:50.551Z,22.83
2023-04-08T12:04:50.340Z,22.83
2023-04-08T12:05:50.310Z,22.83
2023-04-08T12:06:50.309Z,22.84
2023-04-08T12:07:50.370Z,22.83
2023-04-08T12:08:50.426Z,22.82
2023-04-08T12:09:50.483Z,22.83
2023-04-08T12:10:50.547Z,22.83
2023-04-08T12:11:50.592Z,22.83
2023-04-08T12:12:50.672Z,22.83
2023-04-08T12:13:50.975Z,22.84
2023-04-08T12:14:50.809Z,22.85
2023-04-08T12:15:50.897Z,22.84
2023-04-08T12:16:50.871Z,22.84
2023-04-08T12:17:50.945Z,22.86
2023-04-08T12:18:50.955Z,22.87
2023-04-08T12:19:51.009Z,22.88
2023-04-08T12:20:51.083Z,22.88
2023-04-08T12:21:51.140Z,22.89
2023-04-08T12:22:51.183Z,22.89
2023-04-08T12:23:51.367Z,22.89
2023-04-08T12:24:51.288Z,22.89
2023-04-08T12:25:51.326Z,22.88
2023-04-08T12:26:51.400Z,22.89
2023-04-08T12:27:51.444Z,22.89
2023-04-08T12:28:51.505Z,22.89
2023-04-08T12:29:51.575Z,22.89
2023-04-08T12:30:51.640Z,22.89
2023-04-08T12:31:51.767Z,22.89
2023-04-08T12:32:51.819Z,22.89
2023-04-08T12:33:52.090Z,22.89
2023-04-08T12:34:51.884Z,22.89
2023-04-08T12:35:51.970Z,22.89
2023-04-08T12:36:51.994Z,22.90
2023-04-08T12:37:52.122Z,22.91
2023-04-08T12:38:52.250Z,22.91
2023-04-08T12:39:52.224Z,22.91
2023-04-08T12:40:52.271Z,22.91
2023-04-08T12:41:52.347Z,22.92
2023-04-08T12:42:52.394Z,22.92
2023-04-08T12:43:52.417Z,22.92
2023-04-08T12:44:52.478Z,22.92
2023-04-08T12:45:52.521Z,22.92
2023-04-08T12:46:52.618Z,22.91
2023-04-08T12:47:52.796Z,22.91
2023-04-08T12:49:03.238Z,22.92
2023-04-08T12:49:53.733Z,22.91
2023-04-08T12:50:52.730Z,22.92
2023-04-08T12:51:52.726Z,22.92
2023-04-08T12:52:52.708Z,22.93
2023-04-08T12:53:52.711Z,22.92
2023-04-08T12:54:52.706Z,22.92